sensor_id;sensor_type;location;lat;lon;timestamp;P1;durP1;ratioP1;P2;durP2;ratioP2
36797;SDS011;22748;8.426;99.512;2023-04-25T00:00:00;12.18;;;10.75;;
36797;SDS011;22748;8.426;99.512;2023-04-25T00:02:33;16.75;;;10.65;;
36797;SDS011;22748;8.426;99.512;2023-04-25T00:05:06;11.18;;;10.07;;
36797;SDS011;22748;8.426;99.512;2023-04-25T00:07:44;12.27;;;11.00;;
36797;SDS011;22748;8.426;99.512;2023-04-25T00:10:15;13.60;;;12.30;;
36797;SDS011;22748;8.426;99.512;2023-04-25T00:15:24;16.48;;;12.30;;
36797;SDS011;22748;8.426;99.512;2023-04-25T00:17:57;14.00;;;12.38;;
36797;SDS011;22748;8.426;99.512;2023-04-25T00:20:39;13.73;;;12.40;;
36797;SDS011;22748;8.426;99.512;2023-04-25T00:23:16;15.77;;;12.57;;
36797;SDS011;22748;8.426;99.512;2023-04-25T00:25:48;14.35;;;12.45;;
36797;SDS011;22748;8.426;99.512;2023-04-25T00:28:26;17.20;;;12.85;;
36797;SDS011;22748;8.426;99.512;2023-04-25T00:30:56;13.98;;;12.57;;
36797;SDS011;22748;8.426;99.512;2023-04-25T00:33:35;17.13;;;13.88;;
36797;SDS011;22748;8.426;99.512;2023-04-25T00:36:09;19.45;;;13.90;;
36797;SDS011;22748;8.426;99.512;2023-04-25T00:38:53;15.82;;;14.13;;
36797;SDS011;22748;8.426;99.512;2023-04-25T00:41:25;14.90;;;13.40;;
36797;SDS011;22748;8.426;99.512;2023-04-25T00:43:56;15.07;;;13.48;;
36797;SDS011;22748;8.426;99.512;2023-04-25T00:46:28;16.45;;;14.93;;
36797;SDS011;22748;8.426;99.512;2023-04-25T00:49:04;21.67;;;15.98;;
36797;SDS011;22748;8.426;99.512;2023-04-25T00:51:43;16.20;;;14.43;;
36797;SDS011;22748;8.426;99.512;2023-04-25T00:54:14;20.27;;;17.38;;
36797;SDS011;22748;8.426;99.512;2023-04-25T00:56:50;19.95;;;17.85;;
36797;SDS011;22748;8.426;99.512;2023-04-25T00:59:27;19.33;;;17.42;;
36797;SDS011;22748;8.426;99.512;2023-04-25T01:02:04;20.52;;;17.25;;
36797;SDS011;22748;8.426;99.512;2023-04-25T01:04:35;18.95;;;17.05;;
36797;SDS011;22748;8.426;99.512;2023-04-25T01:07:12;19.83;;;17.70;;
36797;SDS011;22748;8.426;99.512;2023-04-25T01:09:49;20.20;;;18.05;;
36797;SDS011;22748;8.426;99.512;2023-04-25T01:12:33;22.10;;;19.38;;
36797;SDS011;22748;8.426;99.512;2023-04-25T01:15:05;22.08;;;19.88;;
36797;SDS011;22748;8.426;99.512;2023-04-25T01:17:36;27.35;;;21.45;;
36797;SDS011;22748;8.426;99.512;2023-04-25T01:20:13;21.25;;;19.00;;
36797;SDS011;22748;8.426;99.512;2023-04-25T01:22:59;23.10;;;19.90;;
36797;SDS011;22748;8.426;99.512;2023-04-25T01:25:31;24.55;;;22.13;;
36797;SDS011;22748;8.426;99.512;2023-04-25T01:28:03;26.63;;;24.02;;
36797;SDS011;22748;8.426;99.512;2023-04-25T01:30:34;35.38;;;27.90;;
36797;SDS011;22748;8.426;99.512;2023-04-25T01:33:17;30.98;;;26.20;;
36797;SDS011;22748;8.426;99.512;2023-04-25T01:35:50;26.40;;;23.60;;
36797;SDS011;22748;8.426;99.512;2023-04-25T01:38:35;24.33;;;21.77;;
36797;SDS011;22748;8.426;99.512;2023-04-25T01:41:07;35.00;;;25.42;;
36797;SDS011;22748;8.426;99.512;2023-04-25T01:43:38;26.60;;;23.98;;
36797;SDS011;22748;8.426;99.512;2023-04-25T01:46:14;26.52;;;23.92;;
36797;SDS011;22748;8.426;99.512;2023-04-25T01:51:15;28.13;;;23.05;;
36797;SDS011;22748;8.426;99.512;2023-04-25T01:53:53;30.92;;;22.95;;
36797;SDS011;22748;8.426;99.512;2023-04-25T01:56:24;25.92;;;23.30;;
36797;SDS011;22748;8.426;99.512;2023-04-25T01:58:55;25.37;;;22.73;;
36797;SDS011;22748;8.426;99.512;2023-04-25T02:01:31;25.00;;;21.70;;
36797;SDS011;22748;8.426;99.512;2023-04-25T02:04:07;25.85;;;21.17;;
36797;SDS011;22748;8.426;99.512;2023-04-25T02:06:37;25.40;;;21.50;;
36797;SDS011;22748;8.426;99.512;2023-04-25T02:09:19;25.10;;;20.52;;
36797;SDS011;22748;8.426;99.512;2023-04-25T02:11:50;30.63;;;22.48;;
36797;SDS011;22748;8.426;99.512;2023-04-25T02:14:20;27.17;;;23.30;;
36797;SDS011;22748;8.426;99.512;2023-04-25T02:16:50;23.98;;;21.20;;
36797;SDS011;22748;8.426;99.512;2023-04-25T02:19:22;23.60;;;21.23;;
36797;SDS011;22748;8.426;99.512;2023-04-25T02:21:52;22.60;;;20.38;;
36797;SDS011;22748;8.426;99.512;2023-04-25T02:27:21;30.08;;;21.67;;
36797;SDS011;22748;8.426;99.512;2023-04-25T02:29:51;25.13;;;20.42;;
36797;SDS011;22748;8.426;99.512;2023-04-25T02:32:22;26.35;;;20.55;;
36797;SDS011;22748;8.426;99.512;2023-04-25T02:34:54;22.80;;;19.80;;
36797;SDS011;22748;8.426;99.512;2023-04-25T02:37:30;29.77;;;21.40;;
36797;SDS011;22748;8.426;99.512;2023-04-25T02:40:10;22.13;;;19.75;;
36797;SDS011;22748;8.426;99.512;2023-04-25T02:42:41;24.50;;;20.88;;
36797;SDS011;22748;8.426;99.512;2023-04-25T02:45:12;29.67;;;19.77;;
36797;SDS011;22748;8.426;99.512;2023-04-25T02:47:44;25.70;;;19.40;;
36797;SDS011;22748;8.426;99.512;2023-04-25T02:50:15;25.63;;;19.70;;
36797;SDS011;22748;8.426;99.512;2023-04-25T02:55:20;21.30;;;19.00;;
36797;SDS011;22748;8.426;99.512;2023-04-25T02:57:52;23.35;;;20.05;;
36797;SDS011;22748;8.426;99.512;2023-04-25T03:00:24;20.92;;;18.75;;
36797;SDS011;22748;8.426;99.512;2023-04-25T03:02:55;24.08;;;18.38;;
36797;SDS011;22748;8.426;99.512;2023-04-25T03:05:26;23.70;;;18.08;;
36797;SDS011;22748;8.426;99.512;2023-04-25T03:07:57;22.83;;;17.92;;
36797;SDS011;22748;8.426;99.512;2023-04-25T03:13:13;18.48;;;16.45;;
36797;SDS011;22748;8.426;99.512;2023-04-25T03:15:43;20.83;;;17.83;;
36797;SDS011;22748;8.426;99.512;2023-04-25T03:18:19;21.23;;;19.02;;
36797;SDS011;22748;8.426;99.512;2023-04-25T03:20:50;20.50;;;17.95;;
36797;SDS011;22748;8.426;99.512;2023-04-25T03:23:26;20.00;;;17.77;;
36797;SDS011;22748;8.426;99.512;2023-04-25T03:26:03;19.63;;;16.98;;
36797;SDS011;22748;8.426;99.512;2023-04-25T03:28:41;22.00;;;18.13;;
36797;SDS011;22748;8.426;99.512;2023-04-25T03:31:11;21.13;;;17.50;;
36797;SDS011;22748;8.426;99.512;2023-04-25T03:33:41;18.08;;;15.85;;
36797;SDS011;22748;8.426;99.512;2023-04-25T03:36:13;20.90;;;16.52;;
36797;SDS011;22748;8.426;99.512;2023-04-25T03:38:48;18.35;;;16.58;;
36797;SDS011;22748;8.426;99.512;2023-04-25T03:41:22;20.42;;;18.52;;
36797;SDS011;22748;8.426;99.512;2023-04-25T03:43:55;19.58;;;14.93;;
36797;SDS011;22748;8.426;99.512;2023-04-25T03:46:31;18.23;;;16.35;;
36797;SDS011;22748;8.426;99.512;2023-04-25T03:49:01;18.02;;;16.08;;
36797;SDS011;22748;8.426;99.512;2023-04-25T03:51:39;22.73;;;16.63;;
36797;SDS011;22748;8.426;99.512;2023-04-25T03:54:09;20.25;;;16.20;;
36797;SDS011;22748;8.426;99.512;2023-04-25T03:56:47;19.70;;;15.73;;
36797;SDS011;22748;8.426;99.512;2023-04-25T03:59:18;18.58;;;14.48;;
36797;SDS011;22748;8.426;99.512;2023-04-25T04:01:50;16.75;;;15.25;;
36797;SDS011;22748;8.426;99.512;2023-04-25T04:04:21;16.92;;;15.30;;
36797;SDS011;22748;8.426;99.512;2023-04-25T04:06:52;21.80;;;15.27;;
36797;SDS011;22748;8.426;99.512;2023-04-25T04:11:53;21.63;;;14.05;;
36797;SDS011;22748;8.426;99.512;2023-04-25T04:14:24;15.10;;;11.98;;
36797;SDS011;22748;8.426;99.512;2023-04-25T04:16:55;13.73;;;11.73;;
36797;SDS011;22748;8.426;99.512;2023-04-25T04:19:25;15.95;;;11.48;;
36797;SDS011;22748;8.426;99.512;2023-04-25T04:21:55;14.40;;;11.07;;
36797;SDS011;22748;8.426;99.512;2023-04-25T04:24:26;18.90;;;11.48;;
36797;SDS011;22748;8.426;99.512;2023-04-25T04:29:27;13.23;;;11.65;;
36797;SDS011;22748;8.426;99.512;2023-04-25T04:32:03;13.13;;;11.43;;
36797;SDS011;22748;8.426;99.512;2023-04-25T04:34:39;16.35;;;13.10;;
36797;SDS011;22748;8.426;99.512;2023-04-25T04:37:19;14.40;;;12.43;;
36797;SDS011;22748;8.426;99.512;2023-04-25T04:39:53;13.20;;;11.27;;
36797;SDS011;22748;8.426;99.512;2023-04-25T04:42:26;14.65;;;11.27;;
36797;SDS011;22748;8.426;99.512;2023-04-25T04:44:57;14.15;;;11.60;;
36797;SDS011;22748;8.426;99.512;2023-04-25T04:47:27;12.68;;;11.40;;
36797;SDS011;22748;8.426;99.512;2023-04-25T04:49:58;12.93;;;11.63;;
36797;SDS011;22748;8.426;99.512;2023-04-25T04:52:31;14.20;;;12.70;;
36797;SDS011;22748;8.426;99.512;2023-04-25T04:55:04;13.88;;;12.38;;
36797;SDS011;22748;8.426;99.512;2023-04-25T04:57:37;12.52;;;11.23;;
36797;SDS011;22748;8.426;99.512;2023-04-25T05:00:10;14.57;;;12.98;;
36797;SDS011;22748;8.426;99.512;2023-04-25T05:02:42;14.15;;;12.35;;
36797;SDS011;22748;8.426;99.512;2023-04-25T05:05:14;11.35;;;10.38;;
36797;SDS011;22748;8.426;99.512;2023-04-25T05:07:45;12.70;;;11.50;;
36797;SDS011;22748;8.426;99.512;2023-04-25T05:10:17;12.88;;;11.57;;
36797;SDS011;22748;8.426;99.512;2023-04-25T05:12:50;12.77;;;11.48;;
36797;SDS011;22748;8.426;99.512;2023-04-25T05:15:21;13.48;;;12.27;;
36797;SDS011;22748;8.426;99.512;2023-04-25T05:17:56;14.13;;;12.73;;
36797;SDS011;22748;8.426;99.512;2023-04-25T05:20:27;16.15;;;13.10;;
36797;SDS011;22748;8.426;99.512;2023-04-25T05:23:00;14.82;;;13.13;;
36797;SDS011;22748;8.426;99.512;2023-04-25T05:25:31;13.82;;;12.52;;
36797;SDS011;22748;8.426;99.512;2023-04-25T05:28:03;14.77;;;13.48;;
36797;SDS011;22748;8.426;99.512;2023-04-25T05:30:34;14.80;;;13.32;;
36797;SDS011;22748;8.426;99.512;2023-04-25T05:33:07;14.38;;;12.90;;
36797;SDS011;22748;8.426;99.512;2023-04-25T05:35:37;15.60;;;14.10;;
36797;SDS011;22748;8.426;99.512;2023-04-25T05:38:12;15.23;;;13.80;;
36797;SDS011;22748;8.426;99.512;2023-04-25T05:40:44;14.93;;;13.35;;
36797;SDS011;22748;8.426;99.512;2023-04-25T05:43:17;15.05;;;13.65;;
36797;SDS011;22748;8.426;99.512;2023-04-25T05:45:48;14.77;;;13.40;;
36797;SDS011;22748;8.426;99.512;2023-04-25T05:48:18;14.48;;;13.02;;
36797;SDS011;22748;8.426;99.512;2023-04-25T05:50:48;14.25;;;13.05;;
36797;SDS011;22748;8.426;99.512;2023-04-25T05:53:23;15.10;;;13.50;;
36797;SDS011;22748;8.426;99.512;2023-04-25T05:55:53;15.30;;;13.90;;
36797;SDS011;22748;8.426;99.512;2023-04-25T05:58:25;15.57;;;14.05;;
36797;SDS011;22748;8.426;99.512;2023-04-25T06:00:55;15.57;;;13.98;;
36797;SDS011;22748;8.426;99.512;2023-04-25T06:03:26;15.15;;;13.57;;
36797;SDS011;22748;8.426;99.512;2023-04-25T06:05:57;15.68;;;14.15;;
36797;SDS011;22748;8.426;99.512;2023-04-25T06:08:29;16.35;;;14.85;;
36797;SDS011;22748;8.426;99.512;2023-04-25T06:11:02;17.20;;;15.40;;
36797;SDS011;22748;8.426;99.512;2023-04-25T06:13:37;16.10;;;14.50;;
36797;SDS011;22748;8.426;99.512;2023-04-25T06:16:08;16.25;;;14.60;;
36797;SDS011;22748;8.426;99.512;2023-04-25T06:18:42;15.77;;;14.38;;
36797;SDS011;22748;8.426;99.512;2023-04-25T06:21:15;15.60;;;14.10;;
36797;SDS011;22748;8.426;99.512;2023-04-25T06:23:50;15.45;;;13.85;;
36797;SDS011;22748;8.426;99.512;2023-04-25T06:26:20;19.15;;;14.73;;
36797;SDS011;22748;8.426;99.512;2023-04-25T06:28:52;16.10;;;14.35;;
36797;SDS011;22748;8.426;99.512;2023-04-25T06:31:24;16.30;;;14.70;;
36797;SDS011;22748;8.426;99.512;2023-04-25T06:33:59;16.58;;;14.48;;
36797;SDS011;22748;8.426;99.512;2023-04-25T06:36:30;16.37;;;14.67;;
36797;SDS011;22748;8.426;99.512;2023-04-25T06:39:01;16.45;;;14.90;;
36797;SDS011;22748;8.426;99.512;2023-04-25T06:41:32;16.50;;;14.68;;
36797;SDS011;22748;8.426;99.512;2023-04-25T06:44:05;16.77;;;15.15;;
36797;SDS011;22748;8.426;99.512;2023-04-25T06:46:37;17.02;;;15.23;;
36797;SDS011;22748;8.426;99.512;2023-04-25T06:49:07;19.67;;;15.05;;
36797;SDS011;22748;8.426;99.512;2023-04-25T06:51:37;17.38;;;15.57;;
36797;SDS011;22748;8.426;99.512;2023-04-25T06:54:08;16.98;;;15.23;;
36797;SDS011;22748;8.426;99.512;2023-04-25T06:56:41;16.05;;;14.35;;
36797;SDS011;22748;8.426;99.512;2023-04-25T06:59:17;16.80;;;15.05;;
36797;SDS011;22748;8.426;99.512;2023-04-25T07:01:51;17.48;;;15.77;;
36797;SDS011;22748;8.426;99.512;2023-04-25T07:04:22;16.67;;;14.98;;
36797;SDS011;22748;8.426;99.512;2023-04-25T07:06:52;17.15;;;15.40;;
36797;SDS011;22748;8.426;99.512;2023-04-25T07:09:22;19.05;;;17.02;;
36797;SDS011;22748;8.426;99.512;2023-04-25T07:11:53;16.95;;;15.25;;
36797;SDS011;22748;8.426;99.512;2023-04-25T07:14:25;17.67;;;15.90;;
36797;SDS011;22748;8.426;99.512;2023-04-25T07:16:56;20.30;;;15.88;;
36797;SDS011;22748;8.426;99.512;2023-04-25T07:19:29;17.98;;;15.70;;
36797;SDS011;22748;8.426;99.512;2023-04-25T07:22:00;18.88;;;14.60;;
36797;SDS011;22748;8.426;99.512;2023-04-25T07:24:32;16.15;;;14.52;;
36797;SDS011;22748;8.426;99.512;2023-04-25T07:27:09;17.00;;;15.18;;
36797;SDS011;22748;8.426;99.512;2023-04-25T07:29:43;15.15;;;13.85;;
36797;SDS011;22748;8.426;99.512;2023-04-25T07:32:15;21.30;;;15.68;;
36797;SDS011;22748;8.426;99.512;2023-04-25T07:34:47;15.73;;;14.23;;
36797;SDS011;22748;8.426;99.512;2023-04-25T07:37:18;15.90;;;14.27;;
36797;SDS011;22748;8.426;99.512;2023-04-25T07:39:52;16.17;;;14.55;;
36797;SDS011;22748;8.426;99.512;2023-04-25T07:42:23;17.88;;;14.52;;
36797;SDS011;22748;8.426;99.512;2023-04-25T07:44:56;16.10;;;14.60;;
36797;SDS011;22748;8.426;99.512;2023-04-25T07:47:27;18.63;;;15.90;;
36797;SDS011;22748;8.426;99.512;2023-04-25T07:52:27;19.13;;;15.40;;
36797;SDS011;22748;8.426;99.512;2023-04-25T07:54:58;17.23;;;15.50;;
36797;SDS011;22748;8.426;99.512;2023-04-25T07:57:29;16.65;;;15.05;;
36797;SDS011;22748;8.426;99.512;2023-04-25T08:00:02;17.63;;;15.98;;
36797;SDS011;22748;8.426;99.512;2023-04-25T08:02:36;15.95;;;14.65;;
36797;SDS011;22748;8.426;99.512;2023-04-25T08:05:07;16.30;;;14.90;;
36797;SDS011;22748;8.426;99.512;2023-04-25T08:07:41;16.83;;;15.23;;
36797;SDS011;22748;8.426;99.512;2023-04-25T08:12:41;17.33;;;15.60;;
36797;SDS011;22748;8.426;99.512;2023-04-25T08:15:14;16.40;;;14.80;;
36797;SDS011;22748;8.426;99.512;2023-04-25T08:17:46;16.48;;;14.82;;
36797;SDS011;22748;8.426;99.512;2023-04-25T08:20:17;16.63;;;15.00;;
36797;SDS011;22748;8.426;99.512;2023-04-25T08:22:47;18.25;;;16.42;;
36797;SDS011;22748;8.426;99.512;2023-04-25T08:25:17;16.33;;;14.90;;
36797;SDS011;22748;8.426;99.512;2023-04-25T08:27:48;17.55;;;15.73;;
36797;SDS011;22748;8.426;99.512;2023-04-25T08:30:20;16.77;;;15.10;;
36797;SDS011;22748;8.426;99.512;2023-04-25T08:32:50;16.30;;;14.68;;
36797;SDS011;22748;8.426;99.512;2023-04-25T08:35:22;17.55;;;15.07;;
36797;SDS011;22748;8.426;99.512;2023-04-25T08:37:52;18.13;;;15.32;;
36797;SDS011;22748;8.426;99.512;2023-04-25T08:40:23;16.30;;;14.80;;
36797;SDS011;22748;8.426;99.512;2023-04-25T08:42:57;17.23;;;15.43;;
36797;SDS011;22748;8.426;99.512;2023-04-25T08:45:35;16.73;;;15.13;;
36797;SDS011;22748;8.426;99.512;2023-04-25T08:48:07;16.00;;;14.40;;
36797;SDS011;22748;8.426;99.512;2023-04-25T08:50:42;17.20;;;15.50;;
36797;SDS011;22748;8.426;99.512;2023-04-25T08:53:20;21.25;;;18.90;;
36797;SDS011;22748;8.426;99.512;2023-04-25T08:55:53;17.33;;;15.60;;
36797;SDS011;22748;8.426;99.512;2023-04-25T08:58:25;17.83;;;16.15;;
36797;SDS011;22748;8.426;99.512;2023-04-25T09:00:59;23.13;;;15.57;;
36797;SDS011;22748;8.426;99.512;2023-04-25T09:03:31;17.27;;;15.65;;
36797;SDS011;22748;8.426;99.512;2023-04-25T09:06:03;18.23;;;16.25;;
36797;SDS011;22748;8.426;99.512;2023-04-25T09:08:36;20.10;;;16.33;;
36797;SDS011;22748;8.426;99.512;2023-04-25T09:11:07;17.08;;;15.57;;
36797;SDS011;22748;8.426;99.512;2023-04-25T09:13:37;16.73;;;15.13;;
36797;SDS011;22748;8.426;99.512;2023-04-25T09:16:10;18.52;;;15.85;;
36797;SDS011;22748;8.426;99.512;2023-04-25T09:18:43;17.23;;;15.63;;
36797;SDS011;22748;8.426;99.512;2023-04-25T09:21:16;18.15;;;16.35;;
36797;SDS011;22748;8.426;99.512;2023-04-25T09:23:50;16.95;;;15.45;;
36797;SDS011;22748;8.426;99.512;2023-04-25T09:26:22;16.80;;;15.10;;
36797;SDS011;22748;8.426;99.512;2023-04-25T09:29:04;16.70;;;15.05;;
36797;SDS011;22748;8.426;99.512;2023-04-25T09:31:38;17.02;;;15.43;;
36797;SDS011;22748;8.426;99.512;2023-04-25T09:34:09;16.25;;;14.70;;
36797;SDS011;22748;8.426;99.512;2023-04-25T09:36:42;16.08;;;14.55;;
36797;SDS011;22748;8.426;99.512;2023-04-25T09:41:46;15.75;;;14.27;;
36797;SDS011;22748;8.426;99.512;2023-04-25T09:44:23;24.15;;;21.65;;
36797;SDS011;22748;8.426;99.512;2023-04-25T09:46:56;21.92;;;19.65;;
36797;SDS011;22748;8.426;99.512;2023-04-25T09:49:28;17.95;;;16.17;;
36797;SDS011;22748;8.426;99.512;2023-04-25T09:51:59;17.20;;;15.40;;
36797;SDS011;22748;8.426;99.512;2023-04-25T09:54:30;16.45;;;14.85;;
36797;SDS011;22748;8.426;99.512;2023-04-25T09:57:03;16.30;;;14.65;;
36797;SDS011;22748;8.426;99.512;2023-04-25T09:59:42;16.13;;;14.73;;
36797;SDS011;22748;8.426;99.512;2023-04-25T10:02:15;15.63;;;14.23;;
36797;SDS011;22748;8.426;99.512;2023-04-25T10:04:47;16.17;;;14.48;;
36797;SDS011;22748;8.426;99.512;2023-04-25T10:07:22;15.52;;;13.65;;
36797;SDS011;22748;8.426;99.512;2023-04-25T10:09:58;15.65;;;14.10;;
36797;SDS011;22748;8.426;99.512;2023-04-25T10:12:30;15.02;;;13.60;;
36797;SDS011;22748;8.426;99.512;2023-04-25T10:15:02;15.48;;;13.85;;
36797;SDS011;22748;8.426;99.512;2023-04-25T10:17:39;14.90;;;13.38;;
36797;SDS011;22748;8.426;99.512;2023-04-25T10:20:11;14.98;;;13.68;;
36797;SDS011;22748;8.426;99.512;2023-04-25T10:22:41;15.27;;;13.85;;
36797;SDS011;22748;8.426;99.512;2023-04-25T10:25:15;13.93;;;12.73;;
36797;SDS011;22748;8.426;99.512;2023-04-25T10:27:46;15.80;;;13.48;;
36797;SDS011;22748;8.426;99.512;2023-04-25T10:30:18;14.88;;;13.45;;
36797;SDS011;22748;8.426;99.512;2023-04-25T10:32:51;16.27;;;14.30;;
36797;SDS011;22748;8.426;99.512;2023-04-25T10:35:25;15.50;;;14.00;;
36797;SDS011;22748;8.426;99.512;2023-04-25T10:37:58;18.70;;;16.80;;
36797;SDS011;22748;8.426;99.512;2023-04-25T10:40:32;25.23;;;22.60;;
36797;SDS011;22748;8.426;99.512;2023-04-25T10:48:53;24.38;;;21.73;;
36797;SDS011;22748;8.426;99.512;2023-04-25T10:51:25;23.30;;;18.65;;
36797;SDS011;22748;8.426;99.512;2023-04-25T10:54:00;19.85;;;17.85;;
36797;SDS011;22748;8.426;99.512;2023-04-25T10:56:32;19.60;;;16.70;;
36797;SDS011;22748;8.426;99.512;2023-04-25T10:59:06;19.63;;;17.55;;
36797;SDS011;22748;8.426;99.512;2023-04-25T11:01:41;23.88;;;17.98;;
36797;SDS011;22748;8.426;99.512;2023-04-25T11:04:30;21.38;;;17.02;;
36797;SDS011;22748;8.426;99.512;2023-04-25T11:07:07;23.95;;;18.33;;
36797;SDS011;22748;8.426;99.512;2023-04-25T11:09:47;23.60;;;18.10;;
36797;SDS011;22748;8.426;99.512;2023-04-25T11:12:19;22.42;;;17.52;;
36797;SDS011;22748;8.426;99.512;2023-04-25T11:14:49;22.45;;;17.50;;
36797;SDS011;22748;8.426;99.512;2023-04-25T11:17:28;19.70;;;16.92;;
36797;SDS011;22748;8.426;99.512;2023-04-25T11:20:00;20.08;;;16.63;;
36797;SDS011;22748;8.426;99.512;2023-04-25T11:22:36;19.00;;;17.10;;
36797;SDS011;22748;8.426;99.512;2023-04-25T11:25:09;17.70;;;15.98;;
36797;SDS011;22748;8.426;99.512;2023-04-25T11:27:51;16.85;;;15.25;;
36797;SDS011;22748;8.426;99.512;2023-04-25T11:32:53;17.27;;;15.60;;
36797;SDS011;22748;8.426;99.512;2023-04-25T11:35:32;18.13;;;15.98;;
36797;SDS011;22748;8.426;99.512;2023-04-25T11:38:02;28.67;;;21.98;;
36797;SDS011;22748;8.426;99.512;2023-04-25T11:40:33;22.10;;;19.48;;
36797;SDS011;22748;8.426;99.512;2023-04-25T11:43:05;23.55;;;18.48;;
36797;SDS011;22748;8.426;99.512;2023-04-25T11:45:38;24.13;;;20.13;;
36797;SDS011;22748;8.426;99.512;2023-04-25T11:48:09;24.77;;;19.77;;
36797;SDS011;22748;8.426;99.512;2023-04-25T11:50:44;24.80;;;19.65;;
36797;SDS011;22748;8.426;99.512;2023-04-25T11:53:20;33.77;;;27.90;;
36797;SDS011;22748;8.426;99.512;2023-04-25T11:55:52;35.88;;;28.98;;
36797;SDS011;22748;8.426;99.512;2023-04-25T11:58:23;40.72;;;31.63;;
36797;SDS011;22748;8.426;99.512;2023-04-25T12:00:54;33.90;;;29.92;;
36797;SDS011;22748;8.426;99.512;2023-04-25T12:03:29;34.28;;;29.92;;
36797;SDS011;22748;8.426;99.512;2023-04-25T12:06:04;32.42;;;27.85;;
36797;SDS011;22748;8.426;99.512;2023-04-25T12:08:35;37.42;;;27.80;;
36797;SDS011;22748;8.426;99.512;2023-04-25T12:11:19;38.10;;;30.52;;
36797;SDS011;22748;8.426;99.512;2023-04-25T12:13:51;37.92;;;30.38;;
36797;SDS011;22748;8.426;99.512;2023-04-25T12:16:22;39.90;;;31.58;;
36797;SDS011;22748;8.426;99.512;2023-04-25T12:18:55;37.53;;;31.48;;
36797;SDS011;22748;8.426;99.512;2023-04-25T12:21:30;38.35;;;30.83;;
36797;SDS011;22748;8.426;99.512;2023-04-25T12:24:09;38.45;;;30.63;;
36797;SDS011;22748;8.426;99.512;2023-04-25T12:26:58;45.90;;;32.65;;
36797;SDS011;22748;8.426;99.512;2023-04-25T12:29:32;45.22;;;33.38;;
36797;SDS011;22748;8.426;99.512;2023-04-25T12:32:04;45.22;;;33.15;;
36797;SDS011;22748;8.426;99.512;2023-04-25T12:34:35;47.22;;;35.17;;
36797;SDS011;22748;8.426;99.512;2023-04-25T12:37:07;55.25;;;41.33;;
36797;SDS011;22748;8.426;99.512;2023-04-25T12:39:39;58.88;;;39.65;;
36797;SDS011;22748;8.426;99.512;2023-04-25T12:44:39;57.95;;;41.03;;
36797;SDS011;22748;8.426;99.512;2023-04-25T12:47:09;54.00;;;39.40;;
36797;SDS011;22748;8.426;99.512;2023-04-25T12:49:39;51.90;;;38.42;;
36797;SDS011;22748;8.426;99.512;2023-04-25T12:52:12;47.55;;;36.50;;
36797;SDS011;22748;8.426;99.512;2023-04-25T12:54:42;44.78;;;34.85;;
36797;SDS011;22748;8.426;99.512;2023-04-25T12:57:14;39.88;;;33.30;;
36797;SDS011;22748;8.426;99.512;2023-04-25T12:59:46;42.15;;;31.70;;
36797;SDS011;22748;8.426;99.512;2023-04-25T13:02:17;42.05;;;31.75;;
36797;SDS011;22748;8.426;99.512;2023-04-25T13:04:47;41.08;;;29.80;;
36797;SDS011;22748;8.426;99.512;2023-04-25T13:07:19;41.17;;;29.37;;
36797;SDS011;22748;8.426;99.512;2023-04-25T13:09:49;40.85;;;29.30;;
36797;SDS011;22748;8.426;99.512;2023-04-25T13:12:20;37.15;;;29.13;;
36797;SDS011;22748;8.426;99.512;2023-04-25T13:14:51;41.72;;;29.40;;
36797;SDS011;22748;8.426;99.512;2023-04-25T13:17:22;42.83;;;28.92;;
36797;SDS011;22748;8.426;99.512;2023-04-25T13:19:51;39.15;;;28.30;;
36797;SDS011;22748;8.426;99.512;2023-04-25T13:22:23;30.95;;;25.75;;
36797;SDS011;22748;8.426;99.512;2023-04-25T13:24:53;32.42;;;26.23;;
36797;SDS011;22748;8.426;99.512;2023-04-25T13:27:23;27.85;;;24.85;;
36797;SDS011;22748;8.426;99.512;2023-04-25T13:29:54;30.15;;;23.63;;
36797;SDS011;22748;8.426;99.512;2023-04-25T13:32:25;31.38;;;24.27;;
36797;SDS011;22748;8.426;99.512;2023-04-25T13:34:56;50.92;;;35.00;;
36797;SDS011;22748;8.426;99.512;2023-04-25T13:37:29;83.65;;;53.88;;
36797;SDS011;22748;8.426;99.512;2023-04-25T13:40:01;73.68;;;49.30;;
36797;SDS011;22748;8.426;99.512;2023-04-25T13:42:33;81.38;;;54.70;;
36797;SDS011;22748;8.426;99.512;2023-04-25T13:45:04;85.78;;;53.88;;
36797;SDS011;22748;8.426;99.512;2023-04-25T13:47:37;72.03;;;48.22;;
36797;SDS011;22748;8.426;99.512;2023-04-25T13:50:07;60.20;;;40.28;;
36797;SDS011;22748;8.426;99.512;2023-04-25T13:52:40;58.95;;;37.80;;
36797;SDS011;22748;8.426;99.512;2023-04-25T13:55:12;45.05;;;32.30;;
36797;SDS011;22748;8.426;99.512;2023-04-25T14:00:12;32.22;;;23.75;;
36797;SDS011;22748;8.426;99.512;2023-04-25T14:02:44;30.40;;;25.30;;
36797;SDS011;22748;8.426;99.512;2023-04-25T14:05:16;35.60;;;27.20;;
36797;SDS011;22748;8.426;99.512;2023-04-25T14:12:46;34.92;;;27.63;;
36797;SDS011;22748;8.426;99.512;2023-04-25T14:15:17;31.85;;;25.60;;
36797;SDS011;22748;8.426;99.512;2023-04-25T14:17:47;34.65;;;25.92;;
36797;SDS011;22748;8.426;99.512;2023-04-25T14:20:24;30.60;;;24.45;;
36797;SDS011;22748;8.426;99.512;2023-04-25T14:22:56;32.67;;;28.38;;
36797;SDS011;22748;8.426;99.512;2023-04-25T14:25:29;29.58;;;25.05;;
36797;SDS011;22748;8.426;99.512;2023-04-25T14:28:00;26.67;;;23.55;;
36797;SDS011;22748;8.426;99.512;2023-04-25T14:30:30;27.13;;;24.13;;
36797;SDS011;22748;8.426;99.512;2023-04-25T14:33:06;31.02;;;25.27;;
36797;SDS011;22748;8.426;99.512;2023-04-25T14:35:37;31.13;;;26.10;;
36797;SDS011;22748;8.426;99.512;2023-04-25T14:40:41;29.25;;;23.73;;
36797;SDS011;22748;8.426;99.512;2023-04-25T14:43:13;26.40;;;22.40;;
36797;SDS011;22748;8.426;99.512;2023-04-25T14:45:44;29.45;;;23.15;;
36797;SDS011;22748;8.426;99.512;2023-04-25T14:50:46;26.02;;;23.02;;
36797;SDS011;22748;8.426;99.512;2023-04-25T14:55:48;51.30;;;35.40;;
36797;SDS011;22748;8.426;99.512;2023-04-25T15:00:50;33.35;;;26.52;;
36797;SDS011;22748;8.426;99.512;2023-04-25T15:03:20;34.90;;;25.35;;
36797;SDS011;22748;8.426;99.512;2023-04-25T15:05:51;32.35;;;24.30;;
36797;SDS011;22748;8.426;99.512;2023-04-25T15:08:23;26.35;;;23.27;;
36797;SDS011;22748;8.426;99.512;2023-04-25T15:10:54;26.90;;;22.10;;
36797;SDS011;22748;8.426;99.512;2023-04-25T15:13:25;29.52;;;23.15;;
36797;SDS011;22748;8.426;99.512;2023-04-25T15:16:03;28.33;;;23.45;;
36797;SDS011;22748;8.426;99.512;2023-04-25T15:18:34;25.90;;;22.27;;
36797;SDS011;22748;8.426;99.512;2023-04-25T15:23:37;30.73;;;21.60;;
36797;SDS011;22748;8.426;99.512;2023-04-25T15:26:08;25.85;;;20.38;;
36797;SDS011;22748;8.426;99.512;2023-04-25T15:31:07;23.48;;;20.98;;
36797;SDS011;22748;8.426;99.512;2023-04-25T15:33:38;25.33;;;19.70;;
36797;SDS011;22748;8.426;99.512;2023-04-25T15:38:41;23.23;;;20.65;;
36797;SDS011;22748;8.426;99.512;2023-04-25T15:41:12;24.33;;;20.10;;
36797;SDS011;22748;8.426;99.512;2023-04-25T15:43:44;26.27;;;19.65;;
36797;SDS011;22748;8.426;99.512;2023-04-25T15:46:17;22.08;;;19.65;;
36797;SDS011;22748;8.426;99.512;2023-04-25T15:48:47;23.08;;;19.13;;
36797;SDS011;22748;8.426;99.512;2023-04-25T15:53:50;21.05;;;18.23;;
36797;SDS011;22748;8.426;99.512;2023-04-25T15:56:22;27.58;;;21.50;;